Time;durP1;ratioP1;P1;durP2;ratioP2;P2;SDS_P1;SDS_P2;PMS_P1;PMS_P2;Temp;Humidity;BMP_temperature;BMP_pressure;BME280_temperature;BME280_humidity;BME280_pressure;Samples;Min_cycle;Max_cycle;Signal;HPM_P1;HPM_P2
2021/11/26 00:04:11;;;;;;;50.17;39.27;;;5.80;99.10;;;;;;10494745;28;20224;-81
2021/11/26 00:09:13;;;;;;;48.43;36.43;;;5.80;99.20;;;;;;10488567;28;20230;-81
2021/11/26 00:14:20;;;;;;;55.20;41.83;;;5.80;99.20;;;;;;10510801;28;20207;-82
2021/11/26 00:19:22;;;;;;;45.20;37.90;;;5.80;99.40;;;;;;10522382;28;20220;-82
2021/11/26 00:24:25;;;;;;;51.50;39.20;;;5.80;99.20;;;;;;10519574;28;20674;-82
2021/11/26 00:29:28;;;;;;;46.47;37.00;;;5.80;99.20;;;;;;10531036;28;20227;-82
2021/11/26 00:34:31;;;;;;;47.83;39.10;;;5.80;99.20;;;;;;10527696;28;20206;-82
2021/11/26 00:39:33;;;;;;;54.33;39.03;;;5.80;99.30;;;;;;10531406;28;20336;-82
2021/11/26 00:44:36;;;;;;;48.67;36.07;;;5.80;99.40;;;;;;10501585;28;20227;-82
2021/11/26 00:49:39;;;;;;;50.90;38.43;;;5.80;99.00;;;;;;10501525;28;20235;-81
2021/11/26 00:54:41;;;;;;;53.83;40.87;;;5.70;99.00;;;;;;10521952;28;20570;-81
2021/11/26 00:59:44;;;;;;;47.60;36.53;;;5.70;98.70;;;;;;10528775;28;20363;-81
2021/11/26 01:04:46;;;;;;;52.93;40.20;;;5.70;99.00;;;;;;10511812;28;20315;-81
2021/11/26 01:09:48;;;;;;;50.70;40.00;;;5.70;99.10;;;;;;10510767;28;20227;-81
2021/11/26 01:14:52;;;;;;;50.40;38.00;;;5.70;98.70;;;;;;10521698;28;20231;-81
2021/11/26 01:19:54;;;;;;;47.80;37.10;;;5.70;98.70;;;;;;10521110;28;20844;-81
2021/11/26 01:24:56;;;;;;;49.07;37.27;;;5.70;99.20;;;;;;10527636;28;20230;-81
2021/11/26 01:30:04;;;;;;;48.73;37.30;;;5.70;98.90;;;;;;10528288;28;20238;-81
2021/11/26 01:35:07;;;;;;;51.60;39.77;;;5.70;98.90;;;;;;10528040;28;20270;-81
2021/11/26 01:40:11;;;;;;;51.80;40.10;;;5.70;98.90;;;;;;10546812;28;20311;-81
2021/11/26 01:45:15;;;;;;;54.87;39.13;;;5.70;99.20;;;;;;10510703;28;20319;-82
2021/11/26 01:50:20;;;;;;;47.30;37.83;;;5.70;99.10;;;;;;10507045;28;20314;-81
2021/11/26 01:55:22;;;;;;;48.30;38.87;;;5.70;99.10;;;;;;10529088;28;20212;-81
2021/11/26 02:00:29;;;;;;;46.30;37.70;;;5.70;99.30;;;;;;10524299;28;20232;-81
2021/11/26 02:05:32;;;;;;;49.37;39.17;;;5.70;99.10;;;;;;10517070;28;20223;-81
2021/11/26 02:10:34;;;;;;;46.57;38.40;;;5.70;98.80;;;;;;10536748;28;20253;-81
2021/11/26 02:15:41;;;;;;;48.63;38.30;;;5.70;99.20;;;;;;10507782;28;20681;-81
2021/11/26 02:20:46;;;;;;;48.23;36.83;;;5.70;99.00;;;;;;10521360;28;20314;-81
2021/11/26 02:25:48;;;;;;;48.67;38.63;;;5.70;98.70;;;;;;10507197;28;20234;-81
2021/11/26 02:30:50;;;;;;;47.37;36.20;;;5.60;99.10;;;;;;10528544;22;20691;-81
2021/11/26 02:35:55;;;;;;;49.60;37.43;;;5.70;98.90;;;;;;10515787;28;20204;-81
2021/11/26 02:40:57;;;;;;;48.20;38.10;;;5.70;99.20;;;;;;10543825;28;20729;-81
2021/11/26 02:45:59;;;;;;;47.70;38.90;;;5.70;99.40;;;;;;10523013;28;20216;-82
2021/11/26 02:51:03;;;;;;;47.80;36.87;;;5.70;99.30;;;;;;10531223;28;20261;-82
2021/11/26 02:56:06;;;;;;;46.97;37.77;;;5.70;99.40;;;;;;10498120;28;20208;-82
2021/11/26 03:01:08;;;;;;;47.20;37.70;;;5.80;99.60;;;;;;10518055;28;20242;-82
2021/11/26 03:06:12;;;;;;;45.43;37.50;;;5.80;99.50;;;;;;10506414;28;20227;-82
2021/11/26 03:11:14;;;;;;;50.63;39.63;;;5.70;99.50;;;;;;10520096;28;20635;-81
2021/11/26 03:16:16;;;;;;;50.17;40.20;;;5.80;99.50;;;;;;10539493;28;20210;-81
2021/11/26 03:21:20;;;;;;;48.73;38.17;;;5.80;99.40;;;;;;10520460;28;20624;-80
2021/11/26 03:26:22;;;;;;;49.77;38.27;;;5.80;99.20;;;;;;10530681;28;20311;-82
2021/11/26 03:31:24;;;;;;;50.63;39.57;;;5.80;99.50;;;;;;10545374;28;20228;-82
2021/11/26 03:36:27;;;;;;;45.20;36.60;;;5.80;99.40;;;;;;10517534;28;20230;-82
2021/11/26 03:41:29;;;;;;;41.90;34.80;;;5.80;99.20;;;;;;10522015;28;20224;-82
2021/11/26 03:46:31;;;;;;;48.23;34.63;;;5.70;98.60;;;;;;10535184;28;20220;-81
2021/11/26 03:51:35;;;;;;;48.00;37.83;;;5.70;99.20;;;;;;10525508;28;20224;-82
2021/11/26 03:56:37;;;;;;;48.17;36.87;;;5.70;99.10;;;;;;10527522;28;20294;-82
2021/11/26 04:01:39;;;;;;;48.27;38.47;;;5.70;99.20;;;;;;10510025;28;20262;-81
2021/11/26 04:06:43;;;;;;;52.03;36.70;;;5.70;99.60;;;;;;10514614;28;20319;-82
2021/11/26 04:11:45;;;;;;;48.20;38.80;;;5.70;99.60;;;;;;10549716;28;20227;-81
2021/11/26 04:16:48;;;;;;;41.73;32.40;;;5.70;99.50;;;;;;10508849;28;20236;-81
2021/11/26 04:21:52;;;;;;;45.80;36.83;;;5.80;99.90;;;;;;10548107;28;20219;-82
2021/11/26 04:26:54;;;;;;;50.00;38.30;;;5.70;99.90;;;;;;10536242;28;20235;-81
2021/11/26 04:31:56;;;;;;;50.73;39.50;;;5.70;99.90;;;;;;10515383;28;20235;-80
2021/11/26 04:37:00;;;;;;;48.33;38.40;;;5.70;99.90;;;;;;10548507;28;20663;-80
2021/11/26 04:42:02;;;;;;;48.50;37.00;;;5.70;99.90;;;;;;10547913;28;20702;-81
2021/11/26 04:47:04;;;;;;;49.90;38.50;;;5.70;99.90;;;;;;10491078;28;20235;-81
2021/11/26 04:52:08;;;;;;;51.13;39.37;;;5.70;99.90;;;;;;10516636;28;20326;-81
2021/11/26 04:57:10;;;;;;;50.20;39.00;;;5.70;99.90;;;;;;10510512;28;20208;-81
2021/11/26 05:02:12;;;;;;;52.07;39.40;;;5.70;99.90;;;;;;10484920;28;20582;-83
2021/11/26 05:07:18;;;;;;;49.90;38.23;;;5.70;99.90;;;;;;10495215;28;20226;-80
2021/11/26 05:12:21;;;;;;;49.67;37.80;;;5.70;99.70;;;;;;10520391;28;20709;-82
2021/11/26 05:17:23;;;;;;;47.37;36.83;;;5.60;99.90;;;;;;10525021;28;20200;-81
2021/11/26 05:22:27;;;;;;;48.97;36.57;;;5.60;99.90;;;;;;10535207;28;20216;-81
2021/11/26 05:27:29;;;;;;;48.80;38.07;;;5.60;99.90;;;;;;10530297;28;20593;-82
2021/11/26 05:32:31;;;;;;;49.43;37.33;;;5.50;99.90;;;;;;10549083;28;20239;-81
2021/11/26 05:37:34;;;;;;;47.77;37.80;;;5.50;99.90;;;;;;10560536;28;20223;-82
2021/11/26 05:42:37;;;;;;;47.37;36.40;;;5.60;99.90;;;;;;10532502;28;20248;-82
2021/11/26 05:47:39;;;;;;;50.90;38.37;;;5.60;99.90;;;;;;10515802;28;20648;-81
2021/11/26 05:52:43;;;;;;;49.90;38.30;;;5.60;99.90;;;;;;10537302;28;20711;-81
2021/11/26 05:57:45;;;;;;;48.50;37.07;;;5.70;99.90;;;;;;10527113;28;20200;-81
2021/11/26 06:02:48;;;;;;;51.77;39.20;;;5.70;99.90;;;;;;10492262;28;20225;-79
2021/11/26 06:07:51;;;;;;;43.10;33.27;;;5.80;99.90;;;;;;10479260;28;20234;-79
2021/11/26 06:12:54;;;;;;;39.40;31.93;;;5.80;99.90;;;;;;10509141;28;20602;-79
2021/11/26 06:17:56;;;;;;;45.07;34.03;;;5.80;99.90;;;;;;10530332;28;20563;-79
2021/11/26 06:23:00;;;;;;;44.07;31.20;;;5.80;99.90;;;;;;10515644;28;20320;-79
2021/11/26 06:28:02;;;;;;;44.43;33.43;;;5.80;99.90;;;;;;10474848;28;20228;-78
2021/11/26 06:33:05;;;;;;;44.00;34.20;;;5.90;99.90;;;;;;10488398;28;20235;-78
2021/11/26 06:38:08;;;;;;;42.23;33.73;;;5.80;99.90;;;;;;10504989;28;20207;-82
2021/11/26 06:43:10;;;;;;;49.20;34.87;;;5.80;99.50;;;;;;10508793;28;20331;-82
2021/11/26 06:48:12;;;;;;;38.80;31.20;;;5.80;99.90;;;;;;10500813;28;20321;-81
2021/11/26 06:53:16;;;;;;;41.40;32.60;;;5.80;99.90;;;;;;10517625;28;20226;-81
2021/11/26 06:58:18;;;;;;;45.17;35.20;;;5.80;99.90;;;;;;10501412;28;20234;-81
2021/11/26 07:03:20;;;;;;;43.83;34.20;;;5.80;99.80;;;;;;10511513;28;20664;-81
2021/11/26 07:08:24;;;;;;;49.23;33.80;;;5.80;99.90;;;;;;10501253;28;20292;-81
2021/11/26 07:13:26;;;;;;;43.07;32.63;;;5.80;99.90;;;;;;10526604;28;20224;-81
2021/11/26 07:18:28;;;;;;;41.67;33.30;;;5.80;99.90;;;;;;10503471;28;20196;-82
2021/11/26 07:23:32;;;;;;;40.70;31.90;;;5.80;99.90;;;;;;10545063;28;20216;-81
2021/11/26 07:28:34;;;;;;;41.07;31.97;;;5.80;99.90;;;;;;10524615;28;20220;-81
2021/11/26 07:33:36;;;;;;;41.37;33.20;;;5.90;99.90;;;;;;10502097;28;20237;-82
2021/11/26 07:38:40;;;;;;;39.33;31.70;;;5.90;99.90;;;;;;10514775;28;20322;-81
2021/11/26 07:43:42;;;;;;;39.17;31.37;;;5.90;99.90;;;;;;10509733;28;20270;-84
2021/11/26 07:48:45;;;;;;;41.67;32.33;;;5.90;99.90;;;;;;10524862;28;20233;-82
2021/11/26 07:53:49;;;;;;;42.27;32.80;;;5.90;99.50;;;;;;10528068;28;20220;-80
2021/11/26 07:58:51;;;;;;;44.00;33.57;;;5.90;99.40;;;;;;10534217;28;20546;-82
2021/11/26 08:03:53;;;;;;;41.33;34.27;;;5.90;99.80;;;;;;10523699;28;20232;-81
2021/11/26 08:08:57;;;;;;;44.83;33.63;;;5.80;99.90;;;;;;10503498;28;20224;-81
2021/11/26 08:13:59;;;;;;;48.87;34.97;;;5.90;99.90;;;;;;10533481;28;20251;-80
2021/11/26 08:19:01;;;;;;;42.30;31.97;;;6.00;99.90;;;;;;10511705;28;20219;-81
2021/11/26 08:24:06;;;;;;;43.37;33.20;;;6.00;99.90;;;;;;10490656;28;20626;-82
2021/11/26 08:29:09;;;;;;;43.00;32.67;;;6.10;99.90;;;;;;10494593;28;20661;-82
2021/11/26 08:34:11;;;;;;;43.40;32.73;;;6.20;99.90;;;;;;10536347;28;20660;-83
2021/11/26 08:39:14;;;;;;;45.13;34.83;;;6.20;99.90;;;;;;10509071;28;20433;-83
2021/11/26 08:44:17;;;;;;;41.80;33.07;;;6.30;99.90;;;;;;10538416;28;20303;-83
2021/11/26 08:49:19;;;;;;;40.13;31.90;;;6.30;99.90;;;;;;10525910;28;20224;-82
2021/11/26 08:54:24;;;;;;;41.53;34.00;;;6.30;99.90;;;;;;10522718;28;20199;-82
2021/11/26 08:59:27;;;;;;;40.87;33.60;;;6.40;99.90;;;;;;10527172;28;20255;-83
2021/11/26 09:04:29;;;;;;;50.73;36.80;;;6.40;99.90;;;;;;10566652;28;20273;-83
2021/11/26 09:09:33;;;;;;;42.50;32.80;;;6.30;99.90;;;;;;10513110;28;20229;-81
2021/11/26 09:14:38;;;;;;;49.80;36.40;;;6.20;99.90;;;;;;10524087;28;20193;-83
2021/11/26 09:19:40;;;;;;;46.07;35.20;;;6.20;99.90;;;;;;10507678;28;20219;-81
2021/11/26 09:24:44;;;;;;;48.40;34.33;;;6.30;99.90;;;;;;10486225;28;20674;-81
2021/11/26 09:29:48;;;;;;;46.97;36.50;;;6.30;99.90;;;;;;10501017;28;20572;-83
2021/11/26 09:34:51;;;;;;;48.17;35.97;;;6.30;99.90;;;;;;10503319;28;20266;-81
2021/11/26 09:39:54;;;;;;;46.70;35.33;;;6.30;99.90;;;;;;10467253;28;20232;-82
2021/11/26 09:45:00;;;;;;;51.60;38.80;;;6.40;99.90;;;;;;10485323;28;20685;-83
2021/11/26 09:50:03;;;;;;;47.33;35.50;;;6.50;99.90;;;;;;10486879;28;20216;-81
2021/11/26 09:55:08;;;;;;;46.07;35.10;;;6.60;99.90;;;;;;10487041;28;20231;-83
2021/11/26 10:00:15;;;;;;;45.00;34.93;;;6.60;99.90;;;;;;10538374;28;20307;-84
2021/11/26 10:05:18;;;;;;;48.27;36.83;;;6.60;99.90;;;;;;10503974;28;20238;-81
2021/11/26 10:10:23;;;;;;;49.40;38.40;;;6.70;99.90;;;;;;10482329;28;20272;-81
2021/11/26 10:15:30;;;;;;;45.20;35.73;;;6.70;99.90;;;;;;10495964;28;20221;-80
2021/11/26 10:20:33;;;;;;;54.03;39.50;;;6.70;99.90;;;;;;10506838;28;20227;-81
2021/11/26 10:25:36;;;;;;;47.37;36.90;;;6.70;99.90;;;;;;10483113;28;20304;-82
2021/11/26 10:30:40;;;;;;;49.47;36.90;;;6.80;99.90;;;;;;10487684;28;20255;-83
2021/11/26 10:35:44;;;;;;;50.43;37.83;;;6.80;99.90;;;;;;10505773;28;20205;-82
2021/11/26 10:40:52;;;;;;;51.67;36.93;;;6.70;99.90;;;;;;10471349;28;20255;-82
2021/11/26 10:46:26;;;;;;;48.67;37.30;;;6.70;99.90;;;;;;10474688;28;20293;-82
2021/11/26 10:57:11;;;;;;;46.40;35.60;;;6.70;99.90;;;;;;10478062;28;20224;-82
2021/11/26 11:02:25;;;;;;;44.97;33.37;;;6.70;99.90;;;;;;10508417;28;20220;-83
2021/11/26 11:07:38;;;;;;;50.30;38.47;;;6.70;99.90;;;;;;10525523;28;20224;-82
2021/11/26 11:12:41;;;;;;;43.97;33.93;;;6.80;99.90;;;;;;10508462;28;20231;-83
2021/11/26 11:17:46;;;;;;;45.80;33.53;;;6.80;99.90;;;;;;10529535;28;20329;-84
2021/11/26 11:22:48;;;;;;;48.07;33.47;;;6.80;99.90;;;;;;10514897;28;20671;-83
2021/11/26 11:27:52;;;;;;;46.83;34.13;;;6.80;99.90;;;;;;10540535;28;20223;-84
2021/11/26 11:32:55;;;;;;;40.60;31.37;;;6.80;99.90;;;;;;10530219;28;20688;-84
2021/11/26 11:37:59;;;;;;;50.87;35.43;;;6.90;99.90;;;;;;10552321;28;20204;-83
2021/11/26 11:43:13;;;;;;;46.23;33.13;;;6.90;99.90;;;;;;10531773;28;20228;-82
2021/11/26 11:48:23;;;;;;;41.53;32.87;;;6.90;99.90;;;;;;10541293;28;20585;-82
2021/11/26 11:53:33;;;;;;;42.67;31.20;;;7.00;99.90;;;;;;10495871;28;20228;-82
2021/11/26 11:58:48;;;;;;;39.80;29.70;;;7.00;99.90;;;;;;10488203;28;20223;-83
2021/11/26 12:03:58;;;;;;;37.60;29.40;;;6.90;99.90;;;;;;10456791;28;20216;-83
2021/11/26 12:09:02;;;;;;;40.33;31.20;;;6.90;99.90;;;;;;10505262;28;20578;-82
2021/11/26 12:14:08;;;;;;;36.27;27.97;;;6.90;99.90;;;;;;10528179;28;20194;-82
2021/11/26 12:19:17;;;;;;;35.37;27.93;;;6.90;99.90;;;;;;10498578;28;20259;-83
2021/11/26 12:24:24;;;;;;;37.07;28.33;;;6.90;99.90;;;;;;10547485;28;20204;-83
2021/11/26 12:29:36;;;;;;;39.27;29.20;;;6.90;99.90;;;;;;10540290;28;20254;-83
2021/11/26 12:34:43;;;;;;;38.10;28.90;;;6.90;99.90;;;;;;10533559;28;20228;-83
2021/11/26 12:39:45;;;;;;;37.60;27.63;;;6.80;99.90;;;;;;10531994;28;20235;-82
2021/11/26 12:45:01;;;;;;;42.30;29.97;;;6.80;99.90;;;;;;10514578;28;20553;-83
2021/11/26 12:55:32;;;;;;;38.80;28.70;;;6.80;99.90;;;;;;10538350;28;20649;-82
2021/11/26 13:00:51;;;;;;;31.97;23.53;;;6.90;99.90;;;;;;10524433;28;20638;-82
2021/11/26 13:05:55;;;;;;;37.73;28.00;;;6.90;99.90;;;;;;10540056;28;20291;-82
2021/11/26 13:11:01;;;;;;;36.00;27.20;;;6.80;99.90;;;;;;10515120;28;20240;-83
2021/11/26 13:16:06;;;;;;;39.27;26.40;;;6.80;99.90;;;;;;10500813;28;20232;-82
2021/11/26 13:21:13;;;;;;;36.80;28.10;;;6.70;99.90;;;;;;10531592;28;20502;-83
2021/11/26 13:26:15;;;;;;;34.27;25.90;;;6.80;99.90;;;;;;10541821;28;20230;-83
2021/11/26 13:31:21;;;;;;;35.30;25.80;;;6.90;99.90;;;;;;10520696;28;20613;-83
2021/11/26 13:36:24;;;;;;;30.47;23.20;;;6.80;99.90;;;;;;10545688;28;20293;-83
2021/11/26 13:41:30;;;;;;;28.87;22.50;;;6.80;99.90;;;;;;10523917;28;20224;-83
2021/11/26 13:46:36;;;;;;;29.13;22.17;;;6.80;99.90;;;;;;10515612;28;20289;-82
2021/11/26 13:51:40;;;;;;;24.53;19.93;;;6.80;99.90;;;;;;10525605;28;20239;-82
2021/11/26 13:56:44;;;;;;;25.47;19.63;;;6.90;99.90;;;;;;10548914;28;20235;-82
2021/11/26 14:01:48;;;;;;;27.90;21.70;;;7.00;99.90;;;;;;10528395;28;20227;-83
2021/11/26 14:06:54;;;;;;;24.77;20.97;;;7.00;99.90;;;;;;10533632;28;20238;-82
2021/11/26 14:11:57;;;;;;;22.70;19.33;;;7.10;99.90;;;;;;10535555;28;20216;-82
2021/11/26 14:17:02;;;;;;;23.30;19.70;;;7.00;99.70;;;;;;10522277;28;20203;-82
2021/11/26 14:22:05;;;;;;;21.10;17.93;;;7.00;99.50;;;;;;10506448;28;20231;-83
2021/11/26 14:27:09;;;;;;;18.60;15.87;;;7.00;99.90;;;;;;10547670;28;20219;-83
2021/11/26 14:32:13;;;;;;;21.77;17.03;;;7.00;99.90;;;;;;10527015;22;20267;-81
2021/11/26 14:37:19;;;;;;;17.83;15.10;;;7.00;99.90;;;;;;10543735;28;20204;-85
2021/11/26 14:42:30;;;;;;;20.00;17.03;;;7.00;99.40;;;;;;10539731;28;20257;-83
2021/11/26 14:47:38;;;;;;;16.80;14.57;;;7.00;99.70;;;;;;10529260;28;20227;-84
2021/11/26 14:52:40;;;;;;;15.13;12.67;;;7.10;99.90;;;;;;10511487;28;20257;-84
2021/11/26 14:57:42;;;;;;;17.37;14.20;;;7.10;99.20;;;;;;10521496;28;20204;-83
2021/11/26 15:02:46;;;;;;;13.27;11.97;;;7.10;99.60;;;;;;10528457;28;20238;-84
2021/11/26 15:07:49;;;;;;;13.27;10.73;;;7.10;99.60;;;;;;10519993;28;20588;-83
2021/11/26 15:12:51;;;;;;;12.17;10.30;;;7.10;98.80;;;;;;10538715;28;20281;-83
2021/11/26 15:17:54;;;;;;;10.80;9.80;;;7.00;99.30;;;;;;10513090;28;20234;-83
2021/11/26 15:22:57;;;;;;;11.20;10.10;;;7.00;98.60;;;;;;10497978;28;20273;-82
2021/11/26 15:27:59;;;;;;;10.73;9.57;;;7.10;98.70;;;;;;10505100;28;20267;-84
2021/11/26 15:33:03;;;;;;;11.77;9.93;;;7.00;98.50;;;;;;10533544;28;20725;-83
2021/11/26 15:38:05;;;;;;;11.83;10.73;;;7.00;98.60;;;;;;10497326;28;20254;-82
2021/11/26 15:43:07;;;;;;;13.70;11.10;;;6.90;98.30;;;;;;10513303;28;20231;-83
2021/11/26 15:48:11;;;;;;;13.10;10.60;;;6.90;98.40;;;;;;10504045;28;20235;-83
2021/11/26 15:53:16;;;;;;;12.77;11.47;;;6.80;98.20;;;;;;10534131;28;20303;-83
2021/11/26 15:58:18;;;;;;;11.40;10.33;;;6.80;98.20;;;;;;10482488;28;20258;-82
2021/11/26 16:03:22;;;;;;;12.33;11.10;;;6.80;98.60;;;;;;10524458;28;20228;-82
2021/11/26 16:08:24;;;;;;;11.60;10.40;;;6.70;97.60;;;;;;10542996;28;20565;-83
2021/11/26 16:13:29;;;;;;;11.80;10.60;;;6.60;97.50;;;;;;10515678;28;20235;-82
2021/11/26 16:18:32;;;;;;;10.40;9.27;;;6.60;97.80;;;;;;10533566;28;20292;-82
2021/11/26 16:23:35;;;;;;;12.17;10.87;;;6.50;98.50;;;;;;10567109;28;20212;-84
2021/11/26 16:28:37;;;;;;;11.93;10.43;;;6.50;98.30;;;;;;10531945;28;20229;-83
2021/11/26 16:33:47;;;;;;;11.40;10.33;;;6.50;97.80;;;;;;10543727;28;20235;-83
2021/11/26 16:38:49;;;;;;;12.33;11.13;;;6.50;98.60;;;;;;10534866;28;20667;-83
2021/11/26 16:43:51;;;;;;;11.70;10.50;;;6.50;98.60;;;;;;10518341;28;20307;-83
2021/11/26 16:48:54;;;;;;;11.97;10.63;;;6.60;98.30;;;;;;10536674;28;20231;-82
2021/11/26 16:53:56;;;;;;;13.30;11.37;;;6.50;98.50;;;;;;10528627;28;20647;-82
2021/11/26 16:58:59;;;;;;;12.83;11.03;;;6.60;98.00;;;;;;10534676;28;20555;-83
2021/11/26 17:04:03;;;;;;;11.30;10.10;;;6.50;98.50;;;;;;10551422;28;20313;-84
2021/11/26 17:09:06;;;;;;;11.40;10.30;;;6.60;97.90;;;;;;10516081;28;20467;-84
2021/11/26 17:14:10;;;;;;;10.20;9.20;;;6.70;97.40;;;;;;10510843;28;20593;-83
2021/11/26 17:19:14;;;;;;;10.67;9.33;;;6.70;98.30;;;;;;10513356;28;20306;-83
2021/11/26 17:24:16;;;;;;;9.60;8.70;;;6.70;97.70;;;;;;10533626;28;20231;-83
2021/11/26 17:29:19;;;;;;;10.60;9.60;;;6.60;97.80;;;;;;10539333;28;20289;-83
2021/11/26 17:34:22;;;;;;;10.90;9.37;;;6.60;97.60;;;;;;10538417;28;20262;-83
2021/11/26 17:39:26;;;;;;;9.37;8.47;;;6.50;97.10;;;;;;10530135;28;20200;-83
2021/11/26 17:44:28;;;;;;;8.77;7.90;;;6.50;98.30;;;;;;10549088;28;20247;-83
2021/11/26 17:49:32;;;;;;;11.33;9.50;;;6.50;98.20;;;;;;10531327;28;20234;-83
2021/11/26 17:54:34;;;;;;;12.30;10.73;;;6.50;97.70;;;;;;10515593;28;20238;-84
2021/11/26 17:59:37;;;;;;;10.10;9.10;;;6.50;97.90;;;;;;10516353;28;20671;-83
2021/11/26 18:04:42;;;;;;;11.20;10.10;;;6.60;98.60;;;;;;10538717;28;20222;-84
2021/11/26 18:09:46;;;;;;;11.63;10.53;;;6.60;98.70;;;;;;10511422;28;20319;-84
2021/11/26 18:14:48;;;;;;;11.07;9.97;;;6.60;98.20;;;;;;10511285;28;20501;-84
2021/11/26 18:19:53;;;;;;;11.00;9.90;;;6.60;98.40;;;;;;10533868;28;20282;-83
2021/11/26 18:24:55;;;;;;;12.67;11.40;;;6.50;98.50;;;;;;10538026;28;20215;-84
2021/11/26 18:29:57;;;;;;;11.83;10.70;;;6.60;98.80;;;;;;10511959;28;20235;-83
2021/11/26 18:35:00;;;;;;;12.83;11.53;;;6.60;99.30;;;;;;10533309;28;20650;-83
2021/11/26 18:40:03;;;;;;;16.23;12.63;;;6.60;98.80;;;;;;10511423;28;20758;-83
2021/11/26 18:45:06;;;;;;;13.60;12.13;;;6.60;99.00;;;;;;10526475;28;20214;-84
2021/11/26 18:50:10;;;;;;;13.10;11.80;;;6.60;99.10;;;;;;10529286;28;20707;-84
2021/11/26 18:55:14;;;;;;;14.97;13.33;;;6.60;99.20;;;;;;10529683;28;20203;-83
2021/11/26 19:00:16;;;;;;;15.13;13.53;;;6.50;98.70;;;;;;10530019;28;20224;-83
2021/11/26 19:05:25;;;;;;;15.63;13.57;;;6.50;98.70;;;;;;10507929;28;20215;-83
2021/11/26 19:10:33;;;;;;;14.57;13.10;;;6.50;99.60;;;;;;10506044;28;20308;-83
2021/11/26 19:15:35;;;;;;;16.73;13.17;;;6.50;99.40;;;;;;10513437;28;20235;-84
2021/11/26 19:20:40;;;;;;;14.03;12.43;;;6.50;99.50;;;;;;10531967;28;20573;-83
2021/11/26 19:25:43;;;;;;;13.00;11.60;;;6.50;99.10;;;;;;10505095;28;20208;-83
2021/11/26 19:30:46;;;;;;;14.47;12.97;;;6.50;99.40;;;;;;10515979;28;20232;-83
2021/11/26 19:35:50;;;;;;;12.80;11.47;;;6.50;99.20;;;;;;10524913;28;20203;-83
2021/11/26 19:40:52;;;;;;;14.77;11.17;;;6.40;99.60;;;;;;10501892;28;20247;-84
2021/11/26 19:45:56;;;;;;;13.03;11.60;;;6.40;98.40;;;;;;10509232;28;20575;-84
2021/11/26 19:51:00;;;;;;;13.40;10.57;;;6.40;98.60;;;;;;10539656;28;20793;-83
2021/11/26 19:56:05;;;;;;;12.43;10.93;;;6.40;98.90;;;;;;10514422;28;20211;-85
2021/11/26 20:01:07;;;;;;;13.27;11.87;;;6.30;98.90;;;;;;10513712;28;20235;-84
2021/11/26 20:06:11;;;;;;;12.40;10.93;;;6.30;99.20;;;;;;10523902;28;20200;-84
2021/11/26 20:11:13;;;;;;;12.43;9.80;;;6.30;99.50;;;;;;10533416;28;20231;-84
2021/11/26 20:16:15;;;;;;;10.60;9.13;;;6.30;99.70;;;;;;10512952;28;20211;-85
2021/11/26 20:21:19;;;;;;;11.13;10.03;;;6.30;99.00;;;;;;10531545;28;20299;-84
2021/11/26 20:26:21;;;;;;;11.87;10.67;;;6.40;98.90;;;;;;10513483;28;20271;-83
2021/11/26 20:31:23;;;;;;;14.23;10.40;;;6.40;98.70;;;;;;10492504;28;20326;-84
2021/11/26 20:36:26;;;;;;;10.80;9.63;;;6.30;98.50;;;;;;10525462;28;20204;-85
2021/11/26 20:41:28;;;;;;;10.60;9.60;;;6.30;98.70;;;;;;10520349;28;20304;-85
2021/11/26 20:46:31;;;;;;;11.53;10.37;;;6.30;98.60;;;;;;10507968;28;20215;-84
2021/11/26 20:51:36;;;;;;;11.20;10.10;;;6.30;98.10;;;;;;10516331;28;20770;-84
2021/11/26 20:56:41;;;;;;;10.27;9.27;;;6.30;99.20;;;;;;10535794;28;20211;-84
2021/11/26 21:01:43;;;;;;;11.10;10.00;;;6.40;99.00;;;;;;10517302;28;20220;-84
2021/11/26 21:06:47;;;;;;;9.93;9.03;;;6.40;98.60;;;;;;10527737;28;20216;-84
2021/11/26 21:11:51;;;;;;;12.40;9.50;;;6.50;98.30;;;;;;10529383;28;20242;-84
2021/11/26 21:16:53;;;;;;;10.00;9.00;;;6.50;98.40;;;;;;10523226;28;20656;-84
2021/11/26 21:21:57;;;;;;;10.43;9.43;;;6.50;99.00;;;;;;10547814;28;20216;-84
2021/11/26 21:27:01;;;;;;;9.73;8.83;;;6.50;98.10;;;;;;10511498;28;20220;-84
2021/11/26 21:32:04;;;;;;;10.13;9.23;;;6.50;98.40;;;;;;10535224;28;20259;-84
2021/11/26 21:37:08;;;;;;;9.13;8.33;;;6.50;97.60;;;;;;10522555;28;20226;-84
2021/11/26 21:42:10;;;;;;;10.73;9.53;;;6.50;98.20;;;;;;10514777;28;20227;-84
2021/11/26 21:47:13;;;;;;;9.93;8.23;;;6.50;98.80;;;;;;10529187;28;20621;-84
2021/11/26 21:52:16;;;;;;;8.47;7.70;;;6.60;97.60;;;;;;10511554;28;20237;-84
2021/11/26 21:57:19;;;;;;;8.30;7.60;;;6.50;97.40;;;;;;10529002;28;20303;-84
2021/11/26 22:02:21;;;;;;;8.30;7.57;;;6.50;98.10;;;;;;10490844;28;20240;-84
2021/11/26 22:07:25;;;;;;;7.93;7.23;;;6.40;97.70;;;;;;10520971;28;20234;-84
2021/11/26 22:12:29;;;;;;;13.63;12.33;;;6.50;97.00;;;;;;10503024;28;20730;-84
2021/11/26 22:17:31;;;;;;;10.17;8.50;;;6.50;98.20;;;;;;10555065;28;20627;-83
2021/11/26 22:22:36;;;;;;;8.50;7.70;;;6.50;96.90;;;;;;10555715;28;20220;-83
2021/11/26 22:27:38;;;;;;;7.10;6.50;;;6.50;97.20;;;;;;10519736;28;20227;-84
2021/11/26 22:32:40;;;;;;;6.73;6.20;;;6.50;96.40;;;;;;10522065;28;20239;-83
2021/11/26 22:37:44;;;;;;;6.33;5.83;;;6.40;96.50;;;;;;10529405;28;20724;-81
2021/11/26 22:42:46;;;;;;;7.33;6.67;;;6.30;96.70;;;;;;10530881;28;20259;-81
2021/11/26 22:47:54;;;;;;;6.40;5.87;;;6.40;96.80;;;;;;10509237;28;20226;-81
2021/11/26 22:52:58;;;;;;;6.27;5.67;;;6.40;97.60;;;;;;10514213;28;20239;-81
2021/11/26 22:58:01;;;;;;;6.13;5.57;;;6.30;96.40;;;;;;10542826;28;20295;-83
2021/11/26 23:03:06;;;;;;;6.47;5.93;;;6.30;97.00;;;;;;10509160;28;20647;-82
2021/11/26 23:08:10;;;;;;;5.57;5.17;;;6.30;96.70;;;;;;10503591;28;20219;-82
2021/11/26 23:13:13;;;;;;;6.47;5.80;;;6.30;97.50;;;;;;10541841;28;20224;-82
2021/11/26 23:18:16;;;;;;;6.40;5.80;;;6.40;97.10;;;;;;10522453;28;20290;-81
2021/11/26 23:23:24;;;;;;;5.70;5.30;;;6.40;96.30;;;;;;10504670;28;20285;-81
2021/11/26 23:28:31;;;;;;;4.70;4.40;;;6.40;97.40;;;;;;10521065;28;20590;-81
2021/11/26 23:33:38;;;;;;;5.50;5.10;;;6.40;96.40;;;;;;10525169;28;20232;-81
2021/11/26 23:38:42;;;;;;;5.80;5.30;;;6.40;96.60;;;;;;10545783;28;20232;-81
2021/11/26 23:43:45;;;;;;;5.00;4.60;;;6.40;96.60;;;;;;10521873;28;20635;-82
2021/11/26 23:48:50;;;;;;;4.17;3.87;;;6.40;96.20;;;;;;10510381;28;20703;-81
2021/11/26 23:53:58;;;;;;;4.70;4.40;;;6.40;95.30;;;;;;10509950;28;20231;-81
2021/11/26 23:59:01;;;;;;;5.13;4.63;;;6.30;95.20;;;;;;10526861;28;20212;-81
